createdAt,value
2018-11-11T00:24:33.217Z,0.00
2018-11-11T00:25:33.205Z,0.00
2018-11-11T00:26:33.194Z,0.00
2018-11-11T00:27:33.185Z,0.00
2018-11-11T00:28:33.248Z,0.00
2018-11-11T00:29:33.169Z,0.00
2018-11-11T00:30:33.160Z,0.00
2018-11-11T00:31:33.152Z,0.00
2018-11-11T00:32:33.141Z,0.00
2018-11-11T00:33:33.132Z,0.00
2018-11-11T00:34:33.122Z,0.00
2018-11-11T00:35:33.113Z,0.00
2018-11-11T00:36:33.103Z,0.00
2018-11-11T00:37:33.095Z,0.00
2018-11-11T00:38:33.085Z,0.00
2018-11-11T00:39:33.122Z,0.00
2018-11-11T00:40:33.075Z,0.00
2018-11-11T00:41:33.067Z,0.00
2018-11-11T00:42:33.057Z,0.00
2018-11-11T00:43:33.046Z,0.00
2018-11-11T00:44:33.038Z,0.00
2018-11-11T00:45:33.030Z,0.00
2018-11-11T00:46:33.019Z,0.00
2018-11-11T00:47:33.010Z,0.00
2018-11-11T00:48:33.000Z,0.00
2018-11-11T00:49:32.994Z,0.00
2018-11-11T00:50:32.981Z,0.00
2018-11-11T00:51:32.972Z,0.00
2018-11-11T00:52:32.963Z,0.00
2018-11-11T00:53:32.946Z,0.00
2018-11-11T00:54:32.935Z,0.00
2018-11-11T00:55:32.927Z,0.00
2018-11-11T00:56:32.917Z,0.00
2018-11-11T00:57:32.912Z,0.00
2018-11-11T00:58:32.898Z,0.00
2018-11-11T00:59:32.888Z,0.00
2018-11-11T01:00:32.879Z,0.00
2018-11-11T01:01:32.870Z,0.00
2018-11-11T01:02:33.064Z,0.00
2018-11-11T01:03:32.854Z,0.00
2018-11-11T01:04:32.843Z,0.00
2018-11-11T01:05:32.836Z,0.00
2018-11-11T01:06:32.823Z,0.00
2018-11-11T01:07:32.813Z,0.00
2018-11-11T01:08:32.810Z,0.00
2018-11-11T01:09:32.797Z,0.00
2018-11-11T01:10:32.790Z,0.00
2018-11-11T01:11:32.777Z,0.00
2018-11-11T01:12:32.772Z,0.00
2018-11-11T01:13:32.772Z,0.00
2018-11-11T01:14:32.753Z,0.00
2018-11-11T01:15:32.740Z,0.00
2018-11-11T01:16:32.731Z,0.00
2018-11-11T01:17:32.722Z,0.00
2018-11-11T01:18:32.711Z,0.00
2018-11-11T01:19:32.702Z,0.00
2018-11-11T01:20:32.693Z,0.00
2018-11-11T01:21:32.684Z,0.00
2018-11-11T01:22:32.674Z,0.00
2018-11-11T01:23:32.867Z,0.00
2018-11-11T01:24:32.655Z,0.00
2018-11-11T01:25:32.646Z,0.00
2018-11-11T01:26:32.636Z,0.00
2018-11-11T01:27:32.631Z,0.00
2018-11-11T01:28:32.620Z,0.00
2018-11-11T01:29:32.608Z,0.00
2018-11-11T01:30:32.599Z,0.00
2018-11-11T01:31:32.589Z,0.00
2018-11-11T01:32:32.580Z,0.00
2018-11-11T01:33:32.571Z,0.00
2018-11-11T01:34:32.561Z,0.00
2018-11-11T01:35:32.551Z,0.00
2018-11-11T01:36:32.545Z,0.00
2018-11-11T01:37:32.535Z,0.00
2018-11-11T01:38:32.576Z,0.00
2018-11-11T01:39:32.515Z,0.00
2018-11-11T01:40:32.504Z,0.00
2018-11-11T01:41:32.496Z,0.00
2018-11-11T01:42:32.486Z,0.00
2018-11-11T01:43:32.477Z,0.00
2018-11-11T01:44:32.468Z,0.00
2018-11-11T01:45:32.464Z,0.00
2018-11-11T01:46:32.448Z,0.00
2018-11-11T01:47:32.442Z,0.00
2018-11-11T01:48:32.430Z,0.00
2018-11-11T01:49:32.424Z,0.00
2018-11-11T01:50:32.661Z,0.00
2018-11-11T01:51:32.401Z,0.00
2018-11-11T01:52:32.393Z,0.00
2018-11-11T01:53:32.383Z,0.00
2018-11-11T01:54:32.375Z,0.00
2018-11-11T01:55:32.364Z,0.00
2018-11-11T01:56:32.355Z,0.00
2018-11-11T01:57:32.345Z,0.00
2018-11-11T01:58:32.335Z,0.00
2018-11-11T01:59:32.326Z,0.00
2018-11-11T02:00:32.317Z,0.00
2018-11-11T02:01:32.309Z,0.00
2018-11-11T02:02:32.297Z,0.00
2018-11-11T02:03:32.290Z,0.00
2018-11-11T02:04:32.279Z,0.00
2018-11-11T02:05:32.271Z,0.00
2018-11-11T02:06:32.260Z,0.00
2018-11-11T02:07:32.253Z,0.00
2018-11-11T02:08:32.242Z,0.00
2018-11-11T02:09:32.288Z,0.00
2018-11-11T02:10:32.223Z,0.00
2018-11-11T02:11:32.213Z,0.00
2018-11-11T02:12:32.208Z,0.00
2018-11-11T02:13:32.200Z,0.00
2018-11-11T02:14:32.187Z,0.00
2018-11-11T02:15:32.177Z,0.00
2018-11-11T02:16:32.170Z,0.00
2018-11-11T02:17:32.159Z,0.00
2018-11-11T02:18:32.148Z,0.00
2018-11-11T02:19:32.139Z,0.00
2018-11-11T02:20:32.381Z,0.00
2018-11-11T02:21:32.137Z,0.00
2018-11-11T02:22:32.111Z,0.00
2018-11-11T02:23:32.102Z,0.00
2018-11-11T02:24:32.093Z,0.00
2018-11-11T02:25:32.084Z,0.00
2018-11-11T02:26:32.075Z,0.00
2018-11-11T02:27:32.065Z,0.00
2018-11-11T02:28:32.060Z,0.00
2018-11-11T02:29:32.051Z,0.00
2018-11-11T02:30:32.037Z,0.00
2018-11-11T02:31:32.039Z,0.00
2018-11-11T02:32:32.019Z,0.00
2018-11-11T02:33:32.015Z,0.00
2018-11-11T02:34:32.000Z,0.00
2018-11-11T02:35:31.991Z,0.00
2018-11-11T02:36:31.982Z,0.00
2018-11-11T02:37:32.031Z,0.00
2018-11-11T02:38:31.962Z,0.00
2018-11-11T02:39:31.957Z,0.00
2018-11-11T02:40:31.948Z,0.00
2018-11-11T02:41:32.145Z,0.00
2018-11-11T02:42:31.924Z,0.00
2018-11-11T02:43:31.919Z,0.00
2018-11-11T02:44:31.908Z,0.00
2018-11-11T02:45:31.900Z,0.00
2018-11-11T02:46:31.890Z,0.00
2018-11-11T02:47:31.879Z,0.00
2018-11-11T02:48:31.870Z,0.00
2018-11-11T02:49:31.861Z,0.00
2018-11-11T02:50:31.851Z,0.00
2018-11-11T02:51:31.842Z,0.00
2018-11-11T02:52:32.083Z,0.00
2018-11-11T02:53:31.824Z,0.00
2018-11-11T02:54:31.819Z,0.00
2018-11-11T02:55:31.808Z,0.00
2018-11-11T02:56:31.795Z,0.00
2018-11-11T02:57:31.789Z,0.00
2018-11-11T02:58:31.776Z,0.00
2018-11-11T02:59:31.969Z,0.00
2018-11-11T03:00:31.757Z,0.00
2018-11-11T03:01:31.749Z,0.00
2018-11-11T03:02:31.738Z,0.00
2018-11-11T03:03:31.731Z,0.00
2018-11-11T03:04:31.792Z,0.00
2018-11-11T03:05:31.711Z,0.00
2018-11-11T03:06:31.704Z,0.00
2018-11-11T03:07:31.691Z,0.00
2018-11-11T03:08:31.686Z,0.00
2018-11-11T03:09:31.673Z,0.00
2018-11-11T03:10:31.666Z,0.00
2018-11-11T03:11:31.654Z,0.00
2018-11-11T03:12:31.645Z,0.00
2018-11-11T03:13:31.637Z,0.00
2018-11-11T03:14:31.630Z,0.00
2018-11-11T03:15:31.616Z,0.00
2018-11-11T03:16:31.608Z,0.00
2018-11-11T03:17:31.598Z,0.00
2018-11-11T03:18:31.588Z,0.00
2018-11-11T03:19:31.581Z,0.00
2018-11-11T03:20:31.569Z,0.00
2018-11-11T03:21:31.559Z,0.00
2018-11-11T03:22:31.549Z,0.00
2018-11-11T03:23:31.792Z,0.00
2018-11-11T03:24:31.542Z,0.00
2018-11-11T03:25:31.520Z,0.00
2018-11-11T03:26:31.511Z,0.00
2018-11-11T03:27:31.501Z,0.00
2018-11-11T03:28:31.493Z,0.00
2018-11-11T03:29:31.482Z,0.00
2018-11-11T03:30:31.472Z,0.00
2018-11-11T03:31:31.470Z,0.00
2018-11-11T03:32:31.461Z,0.00
2018-11-11T03:33:31.445Z,0.00
2018-11-11T03:34:31.437Z,0.00
2018-11-11T03:35:31.425Z,0.00
2018-11-11T03:36:31.416Z,0.00
2018-11-11T03:37:31.407Z,0.00
2018-11-11T03:38:31.810Z,0.00
2018-11-11T03:39:31.387Z,0.00
2018-11-11T03:40:31.378Z,0.00
2018-11-11T03:41:31.369Z,0.00
2018-11-11T03:42:31.360Z,0.00
2018-11-11T03:43:31.350Z,0.00
2018-11-11T03:44:31.340Z,0.00
2018-11-11T03:45:31.331Z,0.00
2018-11-11T03:46:31.321Z,0.00
2018-11-11T03:47:31.519Z,0.00
2018-11-11T03:48:31.303Z,0.00
2018-11-11T03:49:31.294Z,0.00
2018-11-11T03:50:31.284Z,0.00
2018-11-11T03:51:31.275Z,0.00
2018-11-11T03:52:31.266Z,0.00
2018-11-11T03:53:31.257Z,0.00
2018-11-11T03:54:31.246Z,0.00
2018-11-11T03:55:31.238Z,0.00
2018-11-11T03:56:31.229Z,0.00
2018-11-11T03:57:31.221Z,0.00
2018-11-11T03:58:31.222Z,0.00
2018-11-11T03:59:31.202Z,0.00
2018-11-11T04:00:31.395Z,0.00
2018-11-11T04:01:31.183Z,0.00
2018-11-11T04:02:31.173Z,0.00
2018-11-11T04:03:31.165Z,0.00
2018-11-11T04:04:31.155Z,0.00
2018-11-11T04:05:31.146Z,0.00
2018-11-11T04:06:31.136Z,0.00
2018-11-11T04:07:31.127Z,0.00
2018-11-11T04:08:31.118Z,0.00
2018-11-11T04:09:31.110Z,0.00
2018-11-11T04:10:31.253Z,0.00
2018-11-11T04:11:31.089Z,0.00
2018-11-11T04:12:31.080Z,0.00
2018-11-11T04:13:31.072Z,0.00
2018-11-11T04:14:31.061Z,0.00
2018-11-11T04:15:31.052Z,0.00
2018-11-11T04:16:31.042Z,0.00
2018-11-11T04:17:31.033Z,0.00
2018-11-11T04:18:31.021Z,0.00
2018-11-11T04:19:31.013Z,0.00
2018-11-11T04:20:31.005Z,0.00
2018-11-11T04:21:30.996Z,0.00
2018-11-11T04:22:30.986Z,0.00
2018-11-11T04:23:30.977Z,0.00
2018-11-11T04:24:30.967Z,0.00
2018-11-11T04:25:30.960Z,0.00
2018-11-11T04:26:30.954Z,0.00
2018-11-11T04:27:30.938Z,0.00
2018-11-11T04:28:30.930Z,0.00
2018-11-11T04:29:30.923Z,0.00
2018-11-11T04:30:31.114Z,0.00
2018-11-11T04:31:30.904Z,0.00
2018-11-11T04:32:30.892Z,0.00
2018-11-11T04:33:30.883Z,0.00
2018-11-11T04:34:30.873Z,0.00
2018-11-11T04:35:30.864Z,0.00
2018-11-11T04:36:30.854Z,0.00
2018-11-11T04:37:30.847Z,0.00
2018-11-11T04:38:30.835Z,0.00
2018-11-11T04:39:30.827Z,0.00
2018-11-11T04:40:30.817Z,0.00
2018-11-11T04:41:30.813Z,0.00
2018-11-11T04:42:30.798Z,0.00
2018-11-11T04:43:30.790Z,0.00
2018-11-11T04:44:30.781Z,0.00
2018-11-11T04:45:30.771Z,0.00
2018-11-11T04:46:30.776Z,0.00
2018-11-11T04:47:30.752Z,0.00
2018-11-11T04:48:30.741Z,0.00
2018-11-11T04:49:30.733Z,0.00
2018-11-11T04:50:30.723Z,0.00
2018-11-11T04:51:30.717Z,0.00
2018-11-11T04:52:30.708Z,0.00
2018-11-11T04:53:30.696Z,0.00
2018-11-11T04:54:30.684Z,0.00
2018-11-11T04:55:30.675Z,0.00
2018-11-11T04:56:30.667Z,0.00
2018-11-11T04:57:30.658Z,0.00
2018-11-11T04:58:30.647Z,0.00
2018-11-11T04:59:30.640Z,0.00
2018-11-11T05:00:30.629Z,0.00
2018-11-11T05:01:30.722Z,0.00
2018-11-11T05:02:30.613Z,0.00
2018-11-11T05:03:30.600Z,0.00
2018-11-11T05:04:30.616Z,0.00
2018-11-11T05:05:30.582Z,0.00
2018-11-11T05:06:30.572Z,0.00
2018-11-11T05:07:30.563Z,0.00
2018-11-11T05:08:30.553Z,0.00
2018-11-11T05:09:30.548Z,0.00
2018-11-11T05:10:30.533Z,0.00
2018-11-11T05:11:30.524Z,0.00
2018-11-11T05:12:30.514Z,0.00
2018-11-11T05:13:30.505Z,0.00
2018-11-11T05:14:30.497Z,0.00
2018-11-11T05:15:30.487Z,0.00
2018-11-11T05:16:30.476Z,0.00
2018-11-11T05:17:30.466Z,0.00
2018-11-11T05:18:30.455Z,0.00
2018-11-11T05:19:30.445Z,0.00
2018-11-11T05:20:30.437Z,0.00
2018-11-11T05:21:30.427Z,0.00
2018-11-11T05:22:30.417Z,0.00
2018-11-11T05:23:30.409Z,0.00
2018-11-11T05:24:30.398Z,0.00
2018-11-11T05:25:30.389Z,0.00
2018-11-11T05:26:30.378Z,0.00
2018-11-11T05:27:30.368Z,0.00
2018-11-11T05:28:30.359Z,0.00
2018-11-11T05:29:30.350Z,0.00
2018-11-11T05:30:30.338Z,0.00
2018-11-11T05:31:30.329Z,0.00
2018-11-11T05:32:30.320Z,0.00
2018-11-11T05:33:30.311Z,0.00
2018-11-11T05:34:30.300Z,0.00
2018-11-11T05:35:30.290Z,0.00
2018-11-11T05:36:30.284Z,0.00
2018-11-11T05:37:30.271Z,0.00
2018-11-11T05:38:30.261Z,0.00
2018-11-11T05:39:30.250Z,0.00
2018-11-11T05:40:30.244Z,0.00
2018-11-11T05:41:30.231Z,0.00
2018-11-11T05:42:30.221Z,0.00
2018-11-11T05:43:30.211Z,0.00
2018-11-11T05:44:30.201Z,0.00
2018-11-11T05:45:30.191Z,0.00
2018-11-11T05:46:30.181Z,0.00
2018-11-11T05:47:30.172Z,0.00
2018-11-11T05:48:30.163Z,0.00
2018-11-11T05:49:30.159Z,0.00
2018-11-11T05:50:30.141Z,0.00
2018-11-11T05:51:30.132Z,0.00
2018-11-11T05:52:30.123Z,0.00
2018-11-11T05:53:30.112Z,0.00
2018-11-11T05:54:30.100Z,0.00
2018-11-11T05:55:30.091Z,0.00
2018-11-11T05:56:30.080Z,0.00
2018-11-11T05:57:30.072Z,0.00
2018-11-11T05:58:30.061Z,0.00
2018-11-11T05:59:30.251Z,0.00
2018-11-11T06:00:30.094Z,0.00
2018-11-11T06:01:30.033Z,0.00
2018-11-11T06:02:30.020Z,0.00
2018-11-11T06:03:30.010Z,0.00
2018-11-11T06:04:29.999Z,0.00
2018-11-11T06:05:29.990Z,0.00
2018-11-11T06:06:29.980Z,0.00
2018-11-11T06:07:29.969Z,0.00
2018-11-11T06:08:29.959Z,0.00
2018-11-11T06:09:29.949Z,0.00
2018-11-11T06:10:29.938Z,4.00
2018-11-11T06:11:29.928Z,4.00
2018-11-11T06:12:30.121Z,0.00
2018-11-11T06:13:29.913Z,4.00
2018-11-11T06:14:29.897Z,4.00
2018-11-11T06:15:29.888Z,4.00
2018-11-11T06:16:29.878Z,4.00
2018-11-11T06:17:29.869Z,8.00
2018-11-11T06:18:29.861Z,4.00
2018-11-11T06:19:30.050Z,4.00
2018-11-11T06:20:29.836Z,8.00
2018-11-11T06:21:29.828Z,12.00
2018-11-11T06:22:29.816Z,16.00
2018-11-11T06:23:29.805Z,16.00
2018-11-11T06:24:29.796Z,20.00
2018-11-11T06:25:29.786Z,20.00
2018-11-11T06:26:29.783Z,24.00
2018-11-11T06:27:29.771Z,32.00
2018-11-11T06:28:29.758Z,36.00
2018-11-11T06:29:29.745Z,40.00
2018-11-11T06:30:29.734Z,44.00
2018-11-11T06:31:29.731Z,48.00
2018-11-11T06:32:29.718Z,56.00
2018-11-11T06:33:29.705Z,60.00
2018-11-11T06:34:29.897Z,72.00
2018-11-11T06:35:29.684Z,80.00
2018-11-11T06:36:29.673Z,92.00
2018-11-11T06:37:29.664Z,100.00
2018-11-11T06:38:29.653Z,108.00
2018-11-11T06:39:29.647Z,116.00
2018-11-11T06:40:29.634Z,124.00
2018-11-11T06:41:29.626Z,136.00
2018-11-11T06:42:29.612Z,140.00
2018-11-11T06:43:29.605Z,136.00
2018-11-11T06:44:29.598Z,140.00
2018-11-11T06:45:29.590Z,152.00
2018-11-11T06:46:29.572Z,164.00
2018-11-11T06:47:29.562Z,180.00
2018-11-11T06:48:29.553Z,212.00
2018-11-11T06:49:29.543Z,256.00
2018-11-11T06:50:29.532Z,288.00
2018-11-11T06:51:29.535Z,308.00
2018-11-11T06:52:29.518Z,336.00
2018-11-11T06:53:29.503Z,356.00
2018-11-11T06:54:29.491Z,380.00
2018-11-11T06:55:29.483Z,392.00
2018-11-11T06:56:29.676Z,432.00
2018-11-11T06:57:29.473Z,492.00
2018-11-11T06:58:29.451Z,580.00
2018-11-11T06:59:29.441Z,680.00
2018-11-11T07:00:29.432Z,788.00
2018-11-11T07:01:29.430Z,840.00
2018-11-11T07:02:29.410Z,864.00
2018-11-11T07:03:29.411Z,944.00
2018-11-11T07:04:29.391Z,936.00
2018-11-11T07:05:29.381Z,920.00
2018-11-11T07:06:29.371Z,992.00
2018-11-11T07:07:29.384Z,1004.00
2018-11-11T07:08:29.351Z,1096.00
2018-11-11T07:09:29.349Z,1164.00
2018-11-11T07:10:29.330Z,1228.00
2018-11-11T07:11:29.323Z,1392.00
2018-11-11T07:12:29.311Z,1452.00
2018-11-11T07:13:29.302Z,1456.00
2018-11-11T07:14:29.292Z,1432.00
2018-11-11T07:15:29.283Z,1192.00
2018-11-11T07:16:29.276Z,1152.00
2018-11-11T07:17:29.261Z,1296.00
2018-11-11T07:18:29.252Z,1368.00
2018-11-11T07:19:29.251Z,1476.00
2018-11-11T07:20:29.232Z,1556.00
2018-11-11T07:21:29.223Z,1592.00
2018-11-11T07:22:29.212Z,1684.00
2018-11-11T07:23:29.228Z,1876.00
2018-11-11T07:24:29.193Z,1824.00
2018-11-11T07:25:29.184Z,1696.00
2018-11-11T07:26:29.173Z,1520.00
2018-11-11T07:27:29.164Z,1448.00
2018-11-11T07:28:29.358Z,1412.00
2018-11-11T07:29:29.144Z,1484.00
2018-11-11T07:30:29.133Z,1488.00
2018-11-11T07:31:29.182Z,1616.00
2018-11-11T07:32:29.114Z,1604.00
2018-11-11T07:33:29.114Z,1672.00
2018-11-11T07:34:29.096Z,1628.00
2018-11-11T07:35:29.085Z,1536.00
2018-11-11T07:36:29.076Z,1424.00
2018-11-11T07:37:29.067Z,1328.00
2018-11-11T07:38:29.056Z,1240.00
2018-11-11T07:39:29.047Z,1144.00
2018-11-11T07:40:29.038Z,1116.00
2018-11-11T07:41:29.027Z,1096.00
2018-11-11T07:42:29.093Z,1084.00
2018-11-11T07:43:29.012Z,1076.00
2018-11-11T07:44:29.003Z,1080.00
2018-11-11T07:45:28.992Z,1092.00
2018-11-11T07:46:28.981Z,1088.00
2018-11-11T07:47:28.970Z,1080.00
2018-11-11T07:48:28.960Z,1076.00
2018-11-11T07:49:28.952Z,1056.00
2018-11-11T07:50:28.942Z,1024.00
2018-11-11T07:51:28.932Z,996.00
2018-11-11T07:52:28.931Z,996.00
2018-11-11T07:53:28.917Z,1116.00
2018-11-11T07:54:28.908Z,1440.00
2018-11-11T07:55:28.895Z,1984.00
2018-11-11T07:56:28.885Z,2632.00
2018-11-11T07:57:28.876Z,3244.00
2018-11-11T07:58:29.017Z,4208.00
2018-11-11T07:59:28.856Z,4912.00
2018-11-11T08:00:28.848Z,5272.00
2018-11-11T08:01:29.079Z,5240.00
2018-11-11T08:02:29.033Z,5376.00
2018-11-11T08:03:29.020Z,3840.00
2018-11-11T08:04:28.812Z,3016.00
2018-11-11T08:05:28.801Z,2776.00
2018-11-11T08:06:28.792Z,2564.00
2018-11-11T08:07:28.785Z,2308.00
2018-11-11T08:08:28.772Z,2116.00
2018-11-11T08:09:28.764Z,2088.00
2018-11-11T08:10:28.755Z,2020.00
2018-11-11T08:11:28.744Z,2056.00
2018-11-11T08:12:28.735Z,2016.00
2018-11-11T08:13:28.727Z,1972.00
2018-11-11T08:14:28.718Z,1960.00
2018-11-11T08:15:28.707Z,1920.00
2018-11-11T08:16:28.701Z,1928.00
2018-11-11T08:17:28.688Z,1976.00
2018-11-11T08:18:28.680Z,2004.00
2018-11-11T08:19:28.669Z,2976.00
2018-11-11T08:20:28.660Z,2684.00
2018-11-11T08:21:28.652Z,2012.00
2018-11-11T08:22:28.641Z,2048.00
2018-11-11T08:23:28.634Z,2020.00
2018-11-11T08:24:28.628Z,2016.00
2018-11-11T08:25:28.715Z,2032.00
2018-11-11T08:26:28.605Z,2048.00
2018-11-11T08:27:28.594Z,2056.00
2018-11-11T08:28:28.589Z,2100.00
2018-11-11T08:29:28.576Z,2184.00
2018-11-11T08:30:28.572Z,2176.00
2018-11-11T08:31:28.556Z,2116.00
2018-11-11T08:32:28.658Z,2108.00
2018-11-11T08:33:28.540Z,2152.00
2018-11-11T08:34:28.527Z,2144.00
2018-11-11T08:35:28.520Z,2156.00
2018-11-11T08:36:28.513Z,2132.00
2018-11-11T08:37:28.498Z,2136.00
2018-11-11T08:38:28.489Z,2152.00
2018-11-11T08:39:28.484Z,2156.00
2018-11-11T08:40:28.737Z,2172.00
2018-11-11T08:41:28.463Z,2184.00
2018-11-11T08:42:28.455Z,2208.00
2018-11-11T08:43:28.449Z,2224.00
2018-11-11T08:44:28.433Z,2268.00
2018-11-11T08:45:28.424Z,2356.00
2018-11-11T08:46:28.417Z,2376.00
2018-11-11T08:47:28.406Z,2448.00
2018-11-11T08:48:28.394Z,2552.00
2018-11-11T08:49:28.390Z,2652.00
2018-11-11T08:50:28.379Z,2552.00
2018-11-11T08:51:28.367Z,2872.00
2018-11-11T08:52:28.365Z,2624.00
2018-11-11T08:53:28.348Z,2768.00
2018-11-11T08:54:28.337Z,3180.00
2018-11-11T08:55:28.332Z,3224.00
2018-11-11T08:56:28.319Z,2600.00
2018-11-11T08:57:28.310Z,3064.00
2018-11-11T08:58:28.305Z,2900.00
2018-11-11T08:59:28.291Z,2952.00
2018-11-11T09:00:28.283Z,2940.00
2018-11-11T09:01:28.273Z,2708.00
2018-11-11T09:02:28.261Z,2960.00
2018-11-11T09:03:28.253Z,3004.00
2018-11-11T09:04:28.245Z,3048.00
2018-11-11T09:05:28.235Z,3084.00
2018-11-11T09:06:28.224Z,3156.00
2018-11-11T09:07:28.216Z,3380.00
2018-11-11T09:08:28.211Z,3004.00
2018-11-11T09:09:28.199Z,5236.00
2018-11-11T09:10:28.187Z,4740.00
2018-11-11T09:11:28.200Z,6276.00
2018-11-11T09:12:28.173Z,4544.00
2018-11-11T09:13:28.166Z,4836.00
2018-11-11T09:14:28.151Z,5692.00
2018-11-11T09:15:28.141Z,5208.00
2018-11-11T09:16:28.136Z,7148.00
2018-11-11T09:17:28.187Z,6020.00
2018-11-11T09:18:28.117Z,4704.00
2018-11-11T09:19:28.110Z,3912.00
2018-11-11T09:20:28.100Z,3232.00
2018-11-11T09:21:28.129Z,4900.00
2018-11-11T09:22:28.081Z,4752.00
2018-11-11T09:23:28.078Z,4392.00
2018-11-11T09:24:28.065Z,4168.00
2018-11-11T09:25:28.058Z,4156.00
2018-11-11T09:26:28.047Z,4328.00
2018-11-11T09:27:28.243Z,4676.00
2018-11-11T09:28:28.030Z,5212.00
2018-11-11T09:29:28.132Z,5908.00
2018-11-11T09:30:28.101Z,6452.00
2018-11-11T09:31:28.003Z,6768.00
2018-11-11T09:32:28.005Z,7000.00
2018-11-11T09:33:27.990Z,7284.00
2018-11-11T09:34:27.976Z,7592.00
2018-11-11T09:35:28.073Z,7828.00
2018-11-11T09:36:27.965Z,7880.00
2018-11-11T09:37:27.955Z,7904.00
2018-11-11T09:38:27.947Z,7960.00
2018-11-11T09:39:27.942Z,7204.00
2018-11-11T09:40:28.340Z,7896.00
2018-11-11T09:41:27.930Z,7816.00
2018-11-11T09:42:27.949Z,7388.00
2018-11-11T09:43:27.923Z,6208.00
2018-11-11T09:44:27.913Z,6040.00
2018-11-11T09:45:27.911Z,6900.00
2018-11-11T09:46:27.902Z,8216.00
2018-11-11T09:47:27.898Z,9316.00
2018-11-11T09:48:27.894Z,9004.00
2018-11-11T09:49:27.892Z,9596.00
2018-11-11T09:50:27.886Z,10092.00
2018-11-11T09:51:27.877Z,10420.00
2018-11-11T09:52:27.877Z,10052.00
2018-11-11T09:53:27.869Z,9888.00
2018-11-11T09:54:27.864Z,10916.00
2018-11-11T09:55:27.870Z,9924.00
2018-11-11T09:56:27.857Z,8480.00
2018-11-11T09:57:27.853Z,8744.00
2018-11-11T09:58:27.870Z,8608.00
2018-11-11T09:59:27.846Z,8692.00
2018-11-11T10:00:27.842Z,7024.00
2018-11-11T10:01:27.838Z,6368.00
2018-11-11T10:02:27.834Z,5988.00
2018-11-11T10:03:27.838Z,7988.00
2018-11-11T10:04:27.838Z,8444.00
2018-11-11T10:05:27.830Z,9272.00
2018-11-11T10:06:27.872Z,10396.00
2018-11-11T10:07:27.814Z,10788.00
2018-11-11T10:08:28.020Z,11232.00
2018-11-11T10:09:27.813Z,11524.00
2018-11-11T10:10:27.815Z,11532.00
2018-11-11T10:11:27.803Z,10892.00
2018-11-11T10:12:27.857Z,9500.00
2018-11-11T10:13:27.795Z,8824.00
2018-11-11T10:14:27.791Z,8384.00
2018-11-11T10:15:27.790Z,8068.00
2018-11-11T10:16:27.792Z,7828.00
2018-11-11T10:17:27.783Z,7952.00
2018-11-11T10:18:27.780Z,8316.00
2018-11-11T10:19:27.778Z,8396.00
2018-11-11T10:20:27.992Z,9008.00
2018-11-11T10:21:27.769Z,8500.00
2018-11-11T10:22:27.766Z,7952.00
2018-11-11T10:23:27.761Z,7384.00
2018-11-11T10:24:27.766Z,7428.00
2018-11-11T10:25:27.753Z,8428.00
2018-11-11T10:26:27.748Z,7872.00
2018-11-11T10:27:27.893Z,9244.00
2018-11-11T10:28:27.740Z,9348.00
2018-11-11T10:29:27.787Z,9192.00
2018-11-11T10:30:27.730Z,8948.00
2018-11-11T10:31:27.733Z,8784.00
2018-11-11T10:32:27.727Z,9176.00
2018-11-11T10:33:27.805Z,9416.00
2018-11-11T10:34:27.717Z,9168.00
2018-11-11T10:35:27.709Z,8488.00
2018-11-11T10:36:27.702Z,8560.00
2018-11-11T10:37:27.779Z,8444.00
2018-11-11T10:38:27.690Z,8352.00
2018-11-11T10:39:27.689Z,8608.00
2018-11-11T10:40:27.680Z,8628.00
2018-11-11T10:41:27.674Z,8960.00
2018-11-11T10:42:27.667Z,9912.00
2018-11-11T10:43:27.661Z,11244.00
2018-11-11T10:44:27.745Z,12008.00
2018-11-11T10:45:27.649Z,10840.00
2018-11-11T10:46:27.643Z,10412.00
2018-11-11T10:47:27.636Z,10076.00
2018-11-11T10:48:27.631Z,9456.00
2018-11-11T10:49:27.631Z,9664.00
2018-11-11T10:50:27.621Z,9568.00
2018-11-11T10:51:27.614Z,9164.00
2018-11-11T10:52:27.613Z,8764.00
2018-11-11T10:53:27.807Z,8568.00
2018-11-11T10:54:27.749Z,8344.00
2018-11-11T10:55:27.798Z,7976.00
2018-11-11T10:56:27.589Z,7592.00
2018-11-11T10:57:27.579Z,7336.00
2018-11-11T10:58:27.573Z,7028.00
2018-11-11T10:59:27.568Z,6660.00
2018-11-11T11:00:27.563Z,6384.00
2018-11-11T11:01:27.558Z,6148.00
2018-11-11T11:02:27.548Z,6108.00
2018-11-11T11:03:27.546Z,6080.00
2018-11-11T11:04:27.535Z,6312.00
2018-11-11T11:05:27.529Z,6640.00
2018-11-11T11:06:27.523Z,7048.00
2018-11-11T11:07:27.519Z,7548.00
2018-11-11T11:08:27.512Z,7556.00
2018-11-11T11:09:27.502Z,7408.00
2018-11-11T11:10:27.494Z,7444.00
2018-11-11T11:11:27.492Z,7464.00
2018-11-11T11:12:27.684Z,7080.00
2018-11-11T11:13:27.580Z,7008.00
2018-11-11T11:14:27.466Z,6972.00
2018-11-11T11:15:27.457Z,7040.00
2018-11-11T11:16:27.461Z,7236.00
2018-11-11T11:17:27.444Z,7280.00
2018-11-11T11:18:27.438Z,7388.00
2018-11-11T11:19:27.433Z,7512.00
2018-11-11T11:20:27.430Z,7820.00
2018-11-11T11:21:27.418Z,8008.00
2018-11-11T11:22:27.406Z,7820.00
2018-11-11T11:23:27.399Z,7688.00
2018-11-11T11:24:27.442Z,7532.00
2018-11-11T11:25:27.414Z,7508.00
2018-11-11T11:26:27.377Z,7512.00
2018-11-11T11:27:27.519Z,7260.00
2018-11-11T11:28:27.366Z,7352.00
2018-11-11T11:29:27.362Z,7592.00
2018-11-11T11:30:27.347Z,7944.00
2018-11-11T11:31:27.612Z,8216.00
2018-11-11T11:32:27.588Z,8264.00
2018-11-11T11:33:27.326Z,8600.00
2018-11-11T11:34:27.374Z,8572.00
2018-11-11T11:35:27.315Z,9184.00
2018-11-11T11:36:27.304Z,9304.00
2018-11-11T11:37:27.297Z,9120.00
2018-11-11T11:38:27.425Z,9464.00
2018-11-11T11:39:27.333Z,9444.00
2018-11-11T11:40:27.276Z,8752.00
2018-11-11T11:41:27.341Z,7828.00
2018-11-11T11:42:27.263Z,6896.00
2018-11-11T11:43:27.264Z,5968.00
2018-11-11T11:44:27.247Z,5768.00
2018-11-11T11:45:27.240Z,6776.00
2018-11-11T11:46:27.231Z,7136.00
2018-11-11T11:47:27.271Z,6976.00
2018-11-11T11:48:27.221Z,6932.00
2018-11-11T11:49:27.209Z,6456.00
2018-11-11T11:50:27.253Z,6356.00
2018-11-11T11:51:27.195Z,6956.00
2018-11-11T11:52:27.231Z,7616.00
2018-11-11T11:53:27.186Z,7460.00
2018-11-11T11:54:27.175Z,6596.00
2018-11-11T11:55:27.166Z,5456.00
2018-11-11T11:56:27.161Z,4648.00
2018-11-11T11:57:27.153Z,4004.00
2018-11-11T11:58:27.145Z,3508.00
2018-11-11T11:59:27.136Z,3336.00
2018-11-11T12:00:27.132Z,3416.00
2018-11-11T12:01:27.122Z,3628.00
2018-11-11T12:02:27.113Z,3688.00
2018-11-11T12:03:27.109Z,3616.00
2018-11-11T12:04:27.097Z,3468.00
2018-11-11T12:05:27.094Z,3588.00
2018-11-11T12:06:27.082Z,3680.00
2018-11-11T12:07:27.077Z,3540.00
2018-11-11T12:08:27.074Z,3476.00
2018-11-11T12:09:27.057Z,3236.00
2018-11-11T12:10:27.047Z,2976.00
2018-11-11T12:11:27.037Z,2820.00
2018-11-11T12:12:27.028Z,2700.00
2018-11-11T12:13:27.021Z,2636.00
2018-11-11T12:14:27.010Z,2648.00
2018-11-11T12:15:27.009Z,2916.00
2018-11-11T12:16:26.998Z,2928.00
2018-11-11T12:17:26.984Z,3052.00
2018-11-11T12:18:26.973Z,2904.00
2018-11-11T12:19:26.966Z,2772.00
2018-11-11T12:20:26.956Z,2860.00
2018-11-11T12:21:26.946Z,3248.00
2018-11-11T12:22:26.942Z,3932.00
2018-11-11T12:23:26.940Z,4484.00
2018-11-11T12:24:26.919Z,4440.00
2018-11-11T12:25:27.162Z,4096.00
2018-11-11T12:26:26.901Z,3464.00
2018-11-11T12:27:26.895Z,3512.00
2018-11-11T12:28:26.882Z,3848.00
2018-11-11T12:29:26.871Z,4272.00
2018-11-11T12:30:26.911Z,4776.00
2018-11-11T12:31:26.857Z,5176.00
2018-11-11T12:32:26.845Z,5408.00
2018-11-11T12:33:26.838Z,4692.00
2018-11-11T12:34:26.824Z,3776.00
2018-11-11T12:35:26.816Z,2976.00
2018-11-11T12:36:26.807Z,2648.00
2018-11-11T12:37:26.801Z,2404.00
2018-11-11T12:38:26.787Z,2212.00
2018-11-11T12:39:26.853Z,2380.00
2018-11-11T12:40:26.767Z,2788.00
2018-11-11T12:41:26.756Z,3064.00
2018-11-11T12:42:26.746Z,3116.00
2018-11-11T12:43:26.738Z,2768.00
2018-11-11T12:44:26.736Z,2228.00
2018-11-11T12:45:26.723Z,1764.00
2018-11-11T12:46:26.714Z,1816.00
2018-11-11T12:47:26.699Z,2128.00
2018-11-11T12:48:26.690Z,2288.00
2018-11-11T12:49:26.681Z,2244.00
2018-11-11T12:50:26.800Z,2156.00
2018-11-11T12:51:26.661Z,2324.00
2018-11-11T12:52:26.658Z,2412.00
2018-11-11T12:53:26.646Z,2532.00
2018-11-11T12:54:26.633Z,2556.00
2018-11-11T12:55:26.964Z,2168.00
2018-11-11T12:56:26.612Z,1972.00
2018-11-11T12:57:26.604Z,2072.00
2018-11-11T12:58:26.598Z,2212.00
2018-11-11T12:59:26.586Z,2368.00
2018-11-11T13:00:26.593Z,2468.00
2018-11-11T13:01:26.565Z,2368.00
2018-11-11T13:02:26.559Z,2260.00
2018-11-11T13:03:26.543Z,2228.00